Time;durP1;ratioP1;P1;durP2;ratioP2;P2;SDS_P1;SDS_P2;PMS_P1;PMS_P2;Temp;Humidity;BMP_temperature;BMP_pressure;BME280_temperature;BME280_humidity;BME280_pressure;Samples;Min_cycle;Max_cycle;Signal;HPM_P1;HPM_P2
2021/04/11 00:00:53;;;;;;;75.43;33.42;;;;;;;7.27;45.56;98518.75;4976525;28;20042;-77
2021/04/11 00:03:23;;;;;;;72.88;31.33;;;;;;;7.26;45.19;98507.06;4983367;28;20023;-76
2021/04/11 00:05:49;;;;;;;75.07;29.73;;;;;;;7.27;45.42;98507.84;4983691;28;20113;-76
2021/04/11 00:08:16;;;;;;;60.15;25.40;;;;;;;7.26;45.41;98511.69;4983943;28;20034;-75
2021/04/11 00:10:46;;;;;;;61.72;26.55;;;;;;;7.32;45.70;98507.06;4973970;28;20026;-75
2021/04/11 00:13:16;;;;;;;60.55;24.27;;;;;;;7.37;45.62;98510.59;4983145;28;20030;-75
2021/04/11 00:15:42;;;;;;;54.90;24.55;;;;;;;7.41;45.48;98506.22;4987080;28;20179;-75
2021/04/11 00:18:07;;;;;;;62.80;27.23;;;;;;;7.40;45.55;98509.22;4975441;28;20576;-75
2021/04/11 00:20:32;;;;;;;80.95;35.55;;;;;;;7.39;45.65;98508.41;4973910;28;20596;-76
2021/04/11 00:22:58;;;;;;;108.43;46.30;;;;;;;7.41;45.61;98511.69;4981485;28;20775;-75
2021/04/11 00:25:29;;;;;;;92.35;41.00;;;;;;;7.41;45.58;98513.56;4984986;28;20034;-75
2021/04/11 00:27:55;;;;;;;88.93;36.33;;;;;;;7.38;45.25;98520.41;4982663;28;20026;-76
2021/04/11 00:30:22;;;;;;;99.13;39.05;;;;;;;7.32;45.42;98518.78;4985113;28;20423;-76
2021/04/11 00:32:49;;;;;;;87.30;35.28;;;;;;;7.26;45.32;98517.97;4982663;28;20113;-75
2021/04/11 00:35:16;;;;;;;72.00;31.98;;;;;;;7.26;45.32;98517.13;4983186;28;20534;-75
2021/04/11 00:37:41;;;;;;;65.72;27.27;;;;;;;7.27;45.61;98514.16;4980534;28;20034;-75
2021/04/11 00:40:15;;;;;;;53.90;23.92;;;;;;;7.26;45.45;98509.78;4974649;28;20071;-75
2021/04/11 00:42:43;;;;;;;61.72;26.48;;;;;;;7.28;45.62;98507.59;4976364;28;20038;-75
2021/04/11 00:45:24;;;;;;;55.33;24.77;;;;;;;7.23;46.02;98510.31;4985921;28;20060;-75
2021/04/11 00:47:49;;;;;;;;;;;;;;;7.23;45.47;98514.94;4987546;28;20033;-75
2021/04/11 00:50:15;;;;;;;51.38;22.08;;;;;;;7.20;45.94;98523.66;4986382;28;20032;-75
2021/04/11 00:52:43;;;;;;;50.53;21.48;;;;;;;7.11;45.87;98510.59;4986410;28;20478;-75
2021/04/11 00:55:09;;;;;;;53.88;22.73;;;;;;;7.06;45.90;98521.50;4987019;28;20018;-75
2021/04/11 00:57:35;;;;;;;51.92;23.05;;;;;;;6.99;46.15;98510.84;4984441;28;20038;-75
2021/04/11 01:00:01;;;;;;;62.30;24.92;;;;;;;6.95;46.43;98515.19;4979561;28;20054;-75
2021/04/11 01:02:26;;;;;;;69.75;29.33;;;;;;;6.90;46.34;98514.38;4977303;28;20033;-75
2021/04/11 01:04:53;;;;;;;107.97;42.50;;;;;;;6.84;46.28;98517.09;4983018;28;20026;-74
2021/04/11 01:07:21;;;;;;;112.65;45.42;;;;;;;6.79;46.17;98522.53;4987142;28;20026;-75
2021/04/11 01:09:48;;;;;;;126.57;48.13;;;;;;;6.72;46.07;98519.28;4985882;28;20083;-75
2021/04/11 01:12:18;;;;;;;103.80;41.63;;;;;;;6.67;47.11;98514.63;4987846;28;20034;-75
2021/04/11 01:14:44;;;;;;;116.97;45.70;;;;;;;6.67;46.40;98513.81;5000844;28;20573;-75
2021/04/11 01:17:14;;;;;;;116.65;43.20;;;;;;;6.63;46.73;98510.78;4986000;28;20474;-75
2021/04/11 01:19:41;;;;;;;133.60;50.13;;;;;;;6.57;47.05;98511.84;4983699;28;20026;-75
2021/04/11 01:22:31;;;;;;;111.03;42.78;;;;;;;6.47;46.78;98503.69;4977010;28;20779;-75
2021/04/11 01:24:59;;;;;;;109.85;41.53;;;;;;;6.43;46.71;98510.75;4978042;28;20122;-75
2021/04/11 01:27:30;;;;;;;99.25;39.85;;;;;;;6.40;46.88;98510.19;4985955;28;20035;-75
2021/04/11 01:29:57;;;;;;;78.03;32.00;;;;;;;6.42;47.59;98507.19;4987099;28;20052;-75
2021/04/11 01:32:23;;;;;;;65.70;28.10;;;;;;;6.43;47.52;98500.66;4985680;28;20084;-75
2021/04/11 01:34:52;;;;;;;56.25;24.45;;;;;;;6.46;47.78;98499.31;4985141;28;20045;-75
2021/04/11 01:37:20;;;;;;;51.10;23.23;;;;;;;6.46;47.51;98494.66;4985310;28;20050;-75
2021/04/11 01:39:46;;;;;;;51.63;21.73;;;;;;;6.49;47.32;98493.34;4985594;28;20306;-75
2021/04/11 01:42:14;;;;;;;43.45;19.58;;;;;;;6.52;47.49;98487.34;4977832;28;20033;-75
2021/04/11 01:44:44;;;;;;;42.20;18.45;;;;;;;6.55;47.27;98487.63;4977943;28;20030;-75
2021/04/11 01:47:12;;;;;;;37.17;17.85;;;;;;;6.60;47.49;98494.16;4983056;28;20038;-75
2021/04/11 01:49:38;;;;;;;38.88;18.05;;;;;;;6.59;47.29;98496.06;4985857;28;20031;-74
2021/04/11 01:52:13;;;;;;;39.50;18.58;;;;;;;6.52;47.28;98499.03;4985810;28;20071;-75
2021/04/11 01:54:39;;;;;;;35.95;18.25;;;;;;;6.50;47.60;98501.22;4984200;28;20383;-75
2021/04/11 01:57:15;;;;;;;41.20;18.85;;;;;;;6.49;47.55;98499.59;4985833;28;20030;-75
2021/04/11 01:59:41;;;;;;;38.10;17.38;;;;;;;6.47;47.37;98498.22;4986116;28;20029;-75
2021/04/11 02:02:07;;;;;;;37.15;17.38;;;;;;;6.44;47.41;98504.22;4979546;28;20482;-75
2021/04/11 02:04:32;;;;;;;39.25;16.70;;;;;;;6.41;47.72;98497.38;4976840;28;20030;-75
2021/04/11 02:07:01;;;;;;;33.80;16.60;;;;;;;6.38;47.34;98496.03;4978848;28;20046;-76
2021/04/11 02:09:29;;;;;;;32.95;16.27;;;;;;;6.36;47.84;98503.63;4985881;28;20026;-74
2021/04/11 02:11:55;;;;;;;35.95;16.00;;;;;;;6.30;47.86;98498.44;4985515;28;20037;-74
2021/04/11 02:14:21;;;;;;;36.00;16.73;;;;;;;6.26;47.35;98492.69;4985499;28;20038;-74
2021/04/11 02:16:47;;;;;;;38.42;17.75;;;;;;;6.18;47.54;98491.31;4984052;28;20045;-74
2021/04/11 02:19:19;;;;;;;35.65;16.52;;;;;;;6.17;47.89;98488.84;4986994;28;20398;-74
2021/04/11 02:21:47;;;;;;;40.75;17.17;;;;;;;6.13;48.05;98488.56;4985826;28;20029;-74
2021/04/11 02:24:14;;;;;;;35.78;17.38;;;;;;;6.08;48.37;98483.94;4979371;28;20068;-74
2021/04/11 02:26:41;;;;;;;38.70;18.45;;;;;;;6.06;48.17;98485.28;4976786;28;20586;-75
2021/04/11 02:29:15;;;;;;;39.80;17.90;;;;;;;6.02;48.23;98489.59;4981868;28;20109;-74
2021/04/11 02:31:40;;;;;;;43.58;19.52;;;;;;;5.94;48.63;98480.81;4984037;28;20049;-74
2021/04/11 02:34:09;;;;;;;35.58;17.58;;;;;;;5.89;48.66;98469.09;4984196;28;20037;-74
2021/04/11 02:36:42;;;;;;;40.30;18.48;;;;;;;5.82;48.68;98477.53;4986174;28;20030;-74
2021/04/11 02:39:14;;;;;;;44.33;19.75;;;;;;;5.78;48.81;98482.66;4984522;28;20018;-74
2021/04/11 02:41:41;;;;;;;41.33;19.42;;;;;;;5.78;48.96;98481.84;4983456;28;20057;-74
2021/04/11 02:44:07;;;;;;;45.10;20.08;;;;;;;5.73;49.04;98477.19;4980474;28;20035;-74
2021/04/11 02:46:43;;;;;;;42.08;19.95;;;;;;;5.69;49.30;98472.53;4975561;28;20030;-74
2021/04/11 02:49:12;;;;;;;50.28;20.63;;;;;;;5.64;48.48;98478.78;4978443;28;20592;-74
2021/04/11 02:51:40;;;;;;;49.65;20.45;;;;;;;5.55;49.08;98467.56;4983766;28;20035;-74
2021/04/11 02:54:08;;;;;;;48.05;22.27;;;;;;;5.51;49.45;98469.16;4984341;28;20019;-74
2021/04/11 02:56:37;;;;;;;43.28;20.02;;;;;;;5.48;49.06;98470.53;4984831;28;20034;-74
2021/04/11 02:59:03;;;;;;;46.38;20.55;;;;;;;5.43;49.62;98475.13;4984669;28;20037;-74
2021/04/11 03:01:36;;;;;;;45.15;20.27;;;;;;;5.40;49.93;98470.19;4985883;28;20042;-74
2021/04/11 03:04:02;;;;;;;44.03;21.75;;;;;;;5.39;49.73;98471.28;4985709;28;20030;-74
2021/04/11 03:06:38;;;;;;;45.42;20.33;;;;;;;5.36;49.99;98467.16;4974373;28;20077;-74
2021/04/11 03:09:08;;;;;;;46.15;21.20;;;;;;;5.34;50.05;98470.16;4975486;28;20432;-74
2021/04/11 03:11:39;;;;;;;45.92;21.50;;;;;;;5.35;50.04;98460.91;4978643;28;20171;-74
2021/04/11 03:14:07;;;;;;;52.97;22.77;;;;;;;5.30;49.75;98450.00;4985021;28;20486;-74
2021/04/11 03:16:35;;;;;;;52.88;23.40;;;;;;;5.30;50.18;98452.72;4983782;28;20259;-74
2021/04/11 03:19:01;;;;;;;42.72;21.63;;;;;;;5.26;49.79;98448.09;4984126;28;20026;-74
2021/04/11 03:21:27;;;;;;;49.00;22.17;;;;;;;5.20;50.40;98445.31;4984911;28;20043;-75
2021/04/11 03:23:53;;;;;;;55.67;24.05;;;;;;;5.15;50.10;98452.59;4984209;28;20091;-74
2021/04/11 03:26:35;;;;;;;76.43;28.63;;;;;;;5.10;49.96;98449.84;4979483;28;20026;-74
2021/04/11 03:29:07;;;;;;;76.43;30.08;;;;;;;5.02;50.42;98451.16;4970420;28;20060;-74
2021/04/11 03:31:40;;;;;;;73.85;28.58;;;;;;;4.97;50.31;98454.66;4973961;28;20053;-74
2021/04/11 03:34:06;;;;;;;70.90;28.10;;;;;;;4.95;50.18;98453.28;4985294;28;20997;-74
2021/04/11 03:36:35;;;;;;;70.28;28.38;;;;;;;4.91;50.60;98452.97;4984033;28;20034;-74
2021/04/11 03:39:03;;;;;;;66.18;28.55;;;;;;;4.88;50.54;98451.63;4985710;28;20018;-74
2021/04/11 03:41:31;;;;;;;74.43;29.55;;;;;;;4.86;51.34;98447.50;4982344;28;20040;-74
2021/04/11 03:44:00;;;;;;;72.72;27.98;;;;;;;4.84;50.75;98444.22;5005475;28;20739;-74
2021/04/11 03:46:43;;;;;;;67.88;29.38;;;;;;;4.81;51.28;98444.72;4991415;28;20034;-74
2021/04/11 03:49:23;;;;;;;57.33;25.35;;;;;;;4.83;51.13;98439.84;4991366;28;20064;-74
2021/04/11 03:51:52;;;;;;;61.38;26.35;;;;;;;4.87;51.06;98436.38;5008920;28;20038;-74
2021/04/11 03:54:28;;;;;;;55.13;24.75;;;;;;;4.92;51.23;98433.69;5009977;28;20476;-74
2021/04/11 03:57:07;;;;;;;53.42;24.67;;;;;;;4.94;51.02;98438.88;4991096;28;20029;-74
2021/04/11 03:59:44;;;;;;;52.55;24.80;;;;;;;4.95;51.44;98440.50;5010023;28;20079;-74
2021/04/11 04:02:12;;;;;;;50.72;23.85;;;;;;;4.94;51.95;98433.44;4986059;28;20022;-75
2021/04/11 04:04:40;;;;;;;47.35;22.48;;;;;;;4.98;51.94;98439.16;4977938;28;20555;-75
2021/04/11 04:07:14;;;;;;;52.53;23.52;;;;;;;5.01;51.27;98438.66;4990982;28;20106;-74
2021/04/11 04:09:43;;;;;;;48.17;23.33;;;;;;;5.02;52.09;98438.41;4991885;28;20038;-75
2021/04/11 04:12:57;;;;;;;50.05;23.80;;;;;;;5.04;51.79;98440.84;4990915;28;20030;-75
2021/04/11 04:15:43;;;;;;;45.25;22.83;;;;;;;5.09;51.65;98431.94;4990616;28;20022;-74
2021/04/11 04:18:27;;;;;;;49.35;23.23;;;;;;;5.17;51.63;98428.69;4990017;28;20042;-75
2021/04/11 04:21:24;;;;;;;45.15;21.95;;;;;;;5.23;51.45;98427.66;4973137;28;20410;-74
2021/04/11 04:23:54;;;;;;;48.10;23.23;;;;;;;5.31;51.43;98429.06;4991034;28;20617;-75
2021/04/11 04:26:40;;;;;;;50.03;26.70;;;;;;;5.30;51.84;98428.25;5006462;28;20037;-74
2021/04/11 04:29:22;;;;;;;58.03;27.95;;;;;;;5.29;52.23;98428.53;5010039;28;20018;-74
2021/04/11 04:32:02;;;;;;;74.28;36.30;;;;;;;5.35;51.91;98425.56;5009389;28;20052;-74
2021/04/11 04:34:41;;;;;;;63.42;30.00;;;;;;;5.40;51.50;98423.97;5009451;28;20034;-74
2021/04/11 04:37:11;;;;;;;55.37;27.07;;;;;;;5.40;51.89;98432.13;5010127;28;20041;-74
2021/04/11 04:40:14;;;;;;;52.63;25.88;;;;;;;5.40;51.69;98424.75;5010282;28;20030;-74
2021/04/11 04:42:51;;;;;;;50.92;26.70;;;;;;;5.46;51.91;98428.34;5003911;28;20040;-74
2021/04/11 04:45:50;;;;;;;48.78;24.48;;;;;;;5.47;51.91;98425.34;5008701;28;20057;-74
2021/04/11 04:48:36;;;;;;;46.97;24.10;;;;;;;5.54;52.01;98430.56;5003132;28;20030;-74
2021/04/11 04:51:08;;;;;;;43.40;22.27;;;;;;;5.59;51.77;98429.78;5007078;28;20032;-74
2021/04/11 04:53:38;;;;;;;48.13;22.48;;;;;;;5.61;52.50;98428.41;5008713;28;20033;-74
2021/04/11 04:56:07;;;;;;;40.33;21.55;;;;;;;5.62;52.17;98427.34;5008777;28;20025;-74
2021/04/11 04:58:35;;;;;;;46.13;23.55;;;;;;;5.63;52.28;98426.25;5008670;28;20090;-75
2021/04/11 05:01:13;;;;;;;46.35;23.33;;;;;;;5.69;52.87;98423.56;5008435;28;20038;-74
2021/04/11 05:03:42;;;;;;;47.63;23.52;;;;;;;5.76;52.73;98421.41;5008409;28;20497;-74
2021/04/11 05:06:15;;;;;;;43.90;22.70;;;;;;;5.86;52.81;98423.34;5008372;28;20046;-75
2021/04/11 05:08:46;;;;;;;45.88;23.48;;;;;;;5.93;52.87;98422.03;5008670;28;20056;-74
2021/04/11 05:11:18;;;;;;;48.17;23.77;;;;;;;6.01;52.46;98430.78;5008448;28;20096;-74
2021/04/11 05:13:49;;;;;;;46.13;23.67;;;;;;;6.10;52.36;98429.19;5008531;28;20033;-75
2021/04/11 05:16:28;;;;;;;42.05;22.13;;;;;;;6.18;52.92;98416.97;4990879;28;20420;-75
2021/04/11 05:19:04;;;;;;;42.15;20.85;;;;;;;6.29;52.61;98415.09;5008096;28;20032;-75
2021/04/11 05:21:35;;;;;;;36.75;19.05;;;;;;;6.40;52.94;98417.56;5007978;28;20108;-74
2021/04/11 05:24:08;;;;;;;28.23;16.83;;;;;;;6.53;52.98;98410.75;4990792;28;20099;-74
2021/04/11 05:26:47;;;;;;;36.80;17.90;;;;;;;6.66;52.89;98416.78;4987540;28;20022;-74
2021/04/11 05:29:26;;;;;;;59.60;24.08;;;;;;;6.80;53.12;98422.50;5006995;28;20029;-74
2021/04/11 05:31:55;;;;;;;44.72;20.13;;;;;;;6.90;53.31;98414.34;5011165;28;20021;-74
2021/04/11 05:34:22;;;;;;;47.88;22.77;;;;;;;7.01;52.99;98415.16;5011273;28;20026;-74
2021/04/11 05:36:51;;;;;;;46.25;22.48;;;;;;;7.14;53.31;98411.03;5027773;28;20097;-75
2021/04/11 05:39:54;;;;;;;41.55;20.98;;;;;;;7.28;52.85;98423.03;5011094;28;20026;-74
2021/04/11 05:42:28;;;;;;;51.90;23.10;;;;;;;7.43;52.97;98415.88;5011076;28;20078;-74
2021/04/11 05:45:05;;;;;;;49.17;21.80;;;;;;;7.57;52.93;98419.69;5011056;28;20030;-74
2021/04/11 05:47:46;;;;;;;45.72;21.05;;;;;;;7.70;52.72;98418.28;4993416;28;20061;-74
2021/04/11 05:50:25;;;;;;;37.33;17.48;;;;;;;7.86;52.43;98418.22;5010987;28;20073;-74
2021/04/11 05:53:03;;;;;;;32.95;16.85;;;;;;;8.02;52.52;98416.25;5011200;28;20030;-74
2021/04/11 05:55:32;;;;;;;36.40;16.00;;;;;;;8.15;52.48;98418.34;5011062;28;20026;-75
2021/04/11 05:58:02;;;;;;;30.83;15.45;;;;;;;8.30;52.49;98417.47;5010895;28;20045;-74
2021/04/11 06:00:35;;;;;;;27.00;14.60;;;;;;;8.46;52.38;98422.81;5010999;28;20082;-74
2021/04/11 06:03:05;;;;;;;24.48;13.43;;;;;;;8.61;52.35;98420.03;5010716;28;20026;-74
2021/04/11 06:06:06;;;;;;;24.48;12.73;;;;;;;8.78;51.72;98424.25;5010612;28;20494;-74
2021/04/11 06:08:56;;;;;;;23.58;12.38;;;;;;;8.94;52.27;98428.50;5010702;28;20465;-74
2021/04/11 06:11:48;;;;;;;22.20;11.77;;;;;;;9.12;52.19;98422.63;5010709;28;20501;-74
2021/04/11 06:14:22;;;;;;;19.58;10.90;;;;;;;9.28;51.47;98423.28;4993163;28;20025;-74
2021/04/11 06:16:50;;;;;;;25.63;12.50;;;;;;;9.44;51.84;98419.31;5010704;28;20623;-75
2021/04/11 06:19:16;;;;;;;23.80;12.13;;;;;;;9.58;51.17;98410.41;5010825;28;20053;-74
2021/04/11 06:22:16;;;;;;;27.80;14.02;;;;;;;9.75;51.44;98412.69;5010149;28;20432;-74
2021/04/11 06:24:52;;;;;;;27.40;15.50;;;;;;;9.89;51.28;98413.59;5010194;28;20042;-74
2021/04/11 06:27:40;;;;;;;28.60;14.98;;;;;;;9.97;51.14;98407.47;5010177;28;20095;-74
2021/04/11 06:30:20;;;;;;;30.00;15.50;;;;;;;10.09;51.62;98403.50;5010235;28;20245;-74
2021/04/11 06:32:51;;;;;;;38.65;19.30;;;;;;;10.21;51.29;98408.53;5010237;28;20037;-73
2021/04/11 06:35:29;;;;;;;31.85;16.42;;;;;;;10.33;51.33;98414.41;5010196;28;20030;-74
2021/04/11 06:37:59;;;;;;;32.50;17.42;;;;;;;10.47;50.71;98408.19;5010106;28;20594;-74
2021/04/11 06:40:47;;;;;;;;;;;;;;;10.61;51.22;98408.25;5006338;28;20492;-74
2021/04/11 06:43:40;;;;;;;25.70;16.02;;;;;;;10.74;50.43;98402.03;4999541;28;19959;-74
2021/04/11 06:46:20;;;;;;;14.55;7.40;;;;;;;10.90;50.38;98399.84;4992262;28;20080;-75
2021/04/11 06:48:58;;;;;;;9.23;5.03;;;;;;;11.09;49.21;98383.31;5042864;28;20034;-74
2021/04/11 06:51:36;;;;;;;10.48;4.88;;;;;;;11.30;48.34;98393.97;4989650;28;20359;-74
2021/04/11 06:54:30;;;;;;;6.72;3.95;;;;;;;11.51;47.86;98388.06;5009472;28;20108;-74
2021/04/11 06:57:24;;;;;;;10.15;5.20;;;;;;;11.66;47.34;98393.28;5010207;28;20025;-74
2021/04/11 07:00:04;;;;;;;12.55;4.93;;;;;;;11.85;46.27;98392.34;5009730;28;20485;-74
2021/04/11 07:03:04;;;;;;;8.93;4.10;;;;;;;12.02;45.70;98383.53;5009611;28;20068;-74
2021/04/11 07:05:44;;;;;;;;;;;;;;;12.20;45.56;98377.06;5009877;28;20105;-74
2021/04/11 07:08:46;;;;;;;8.80;3.40;;;;;;;12.34;43.05;98374.28;5009760;28;20361;-74
2021/04/11 07:11:41;;;;;;;7.10;2.33;;;;;;;12.48;43.56;98374.22;5009455;28;20034;-74
2021/04/11 07:14:18;;;;;;;7.65;2.63;;;;;;;12.62;42.40;98382.44;5009559;28;20079;-74
2021/04/11 07:17:02;;;;;;;10.45;3.00;;;;;;;12.72;42.58;98377.81;5009358;28;20043;-74
2021/04/11 07:19:27;;;;;;;6.07;2.78;;;;;;;12.84;41.91;98371.75;5009230;28;20036;-73
2021/04/11 07:22:08;;;;;;;6.10;3.67;;;;;;;12.95;42.23;98370.34;5009159;28;20034;-74
2021/04/11 07:24:33;;;;;;;9.88;3.92;;;;;;;13.05;41.80;98366.50;5008977;28;20570;-74
2021/04/11 07:27:26;;;;;;;5.68;3.00;;;;;;;13.16;40.95;98367.09;5009344;28;20039;-74
2021/04/11 07:30:13;;;;;;;3.15;2.15;;;;;;;13.22;40.25;98372.13;5009382;28;20038;-75
2021/04/11 07:33:04;;;;;;;9.82;4.15;;;;;;;13.28;39.54;98377.50;4991680;28;20026;-74
2021/04/11 07:35:51;;;;;;;14.02;4.97;;;;;;;13.35;38.75;98384.19;5009296;28;20431;-74
2021/04/11 07:38:30;;;;;;;8.57;2.25;;;;;;;13.43;37.50;98381.81;4991889;28;20021;-75
2021/04/11 07:40:58;;;;;;;7.90;2.50;;;;;;;13.47;36.79;98372.59;5009586;28;20075;-74
2021/04/11 07:43:42;;;;;;;5.78;2.95;;;;;;;13.50;37.68;98382.19;5009010;28;20397;-74
2021/04/11 07:46:24;;;;;;;6.30;2.70;;;;;;;13.56;36.72;98383.66;5009071;28;20037;-75
2021/04/11 07:49:01;;;;;;;5.38;2.00;;;;;;;13.63;36.49;98388.72;5007300;28;20145;-74
2021/04/11 07:51:46;;;;;;;4.38;1.73;;;;;;;13.70;35.98;98370.56;5008862;28;20034;-74
2021/04/11 07:54:44;;;;;;;3.83;2.00;;;;;;;13.78;37.09;98373.69;5008954;28;20034;-74
2021/04/11 07:57:42;;;;;;;5.18;2.00;;;;;;;13.87;35.48;98377.28;5008917;28;20377;-74
2021/04/11 08:00:08;;;;;;;3.72;2.40;;;;;;;13.96;36.06;98380.88;5008703;28;20030;-74
2021/04/11 08:03:08;;;;;;;6.88;2.25;;;;;;;14.03;35.49;98385.91;5008875;28;20102;-74
2021/04/11 08:05:43;;;;;;;5.35;2.00;;;;;;;14.09;35.52;98378.28;5012166;28;20140;-74
2021/04/11 08:08:37;;;;;;;4.47;2.35;;;;;;;14.13;36.00;98371.00;5008259;28;20398;-74
2021/04/11 08:11:05;;;;;;;4.47;2.60;;;;;;;14.22;35.33;98376.56;5008690;28;20037;-74
2021/04/11 08:14:21;;;;;;;3.70;2.08;;;;;;;14.29;35.57;98385.13;5009082;28;20026;-75
2021/04/11 08:17:04;;;;;;;5.78;2.83;;;;;;;14.41;35.45;98390.84;5015408;28;20133;-74
2021/04/11 08:19:57;;;;;;;6.13;2.38;;;;;;;14.49;35.26;98388.41;5008764;28;20473;-74
2021/04/11 08:22:51;;;;;;;4.55;1.90;;;;;;;14.55;34.42;98390.69;5008007;28;20052;-75
2021/04/11 08:25:34;;;;;;;5.25;2.10;;;;;;;14.60;35.17;98386.97;5007969;28;20034;-74
2021/04/11 08:28:37;;;;;;;3.22;2.08;;;;;;;14.68;35.14;98383.34;5007171;28;20073;-75
2021/04/11 08:31:30;;;;;;;7.75;2.53;;;;;;;14.79;34.90;98394.94;5008329;28;20101;-74
2021/04/11 08:34:19;;;;;;;5.03;1.90;;;;;;;14.87;34.35;98391.38;5008383;28;20030;-74
2021/04/11 08:37:18;;;;;;;6.07;2.70;;;;;;;14.91;34.91;98388.75;4989999;28;20022;-74
2021/04/11 08:40:39;;;;;;;5.57;2.13;;;;;;;14.98;34.79;98385.47;4976387;28;20037;-75
2021/04/11 08:43:21;;;;;;;4.50;2.08;;;;;;;15.07;34.58;98388.25;4907070;28;20288;-74
2021/04/11 08:45:58;;;;;;;5.10;2.25;;;;;;;15.13;34.54;98393.25;4981327;28;20034;-75
2021/04/11 08:48:44;;;;;;;6.68;2.95;;;;;;;15.25;34.78;98378.75;4982802;28;20386;-75
2021/04/11 08:51:46;;;;;;;5.28;2.80;;;;;;;15.42;34.78;98379.84;4982307;28;20042;-75
2021/04/11 08:54:31;;;;;;;8.32;3.50;;;;;;;15.54;35.18;98385.47;4982300;28;20088;-74
2021/04/11 08:57:14;;;;;;;8.18;3.55;;;;;;;15.58;34.64;98371.84;4981973;28;20027;-75
2021/04/11 08:59:56;;;;;;;10.82;4.50;;;;;;;15.61;34.86;98385.00;4980982;28;20037;-75
2021/04/11 09:02:55;;;;;;;15.35;6.10;;;;;;;15.67;35.15;98383.66;4976203;28;20038;-75
2021/04/11 09:05:54;;;;;;;19.63;8.40;;;;;;;15.71;35.03;98389.34;4979194;28;20048;-75
2021/04/11 09:08:38;;;;;;;14.32;7.15;;;;;;;15.69;34.92;98394.38;4987074;28;20049;-76
2021/04/11 09:11:26;;;;;;;7.30;4.20;;;;;;;15.67;34.98;98380.91;4986050;28;20027;-73
2021/04/11 09:14:20;;;;;;;4.70;2.80;;;;;;;15.68;34.89;98384.47;4985273;28;20121;-73
2021/04/11 09:17:17;;;;;;;5.88;2.50;;;;;;;15.66;35.21;98390.34;4986203;28;20029;-73
2021/04/11 09:20:00;;;;;;;6.95;2.70;;;;;;;15.76;35.38;98387.19;4986621;28;20030;-73
2021/04/11 09:22:56;;;;;;;5.43;3.17;;;;;;;15.92;35.33;98367.28;4980090;28;20096;-73
2021/04/11 09:25:29;;;;;;;5.50;2.80;;;;;;;15.99;35.43;98384.19;4975292;28;20519;-73
2021/04/11 09:28:07;;;;;;;4.53;2.10;;;;;;;16.13;35.72;98392.22;4983169;28;20027;-74
2021/04/11 09:30:57;;;;;;;6.10;2.63;;;;;;;16.20;36.12;98392.50;4984811;28;20498;-74
2021/04/11 09:33:41;;;;;;;6.03;2.60;;;;;;;16.28;35.86;98385.28;4986155;28;20042;-73
2021/04/11 09:36:14;;;;;;;5.80;2.20;;;;;;;16.33;35.60;98385.09;4984833;28;20057;-74
2021/04/11 09:39:35;;;;;;;6.05;2.20;;;;;;;16.35;35.47;98396.66;4986838;28;20029;-74
2021/04/11 09:42:06;;;;;;;6.50;3.13;;;;;;;16.41;35.84;98400.00;4958972;28;20042;-75
2021/04/11 09:44:54;;;;;;;6.55;2.90;;;;;;;16.54;35.85;98381.50;4977020;28;20041;-76
2021/04/11 09:47:40;;;;;;;25.25;12.02;;;;;;;16.69;35.85;98390.38;4977485;28;20018;-76
2021/04/11 09:50:29;;;;;;;9.00;5.05;;;;;;;16.77;35.58;98383.94;4990368;28;20039;-73
2021/04/11 09:53:03;;;;;;;7.15;2.67;;;;;;;16.81;35.71;98380.16;4990042;28;20428;-74
2021/04/11 09:55:33;;;;;;;11.93;5.70;;;;;;;16.87;35.68;98368.84;4984816;28;20031;-75
2021/04/11 09:58:18;;;;;;;;;;;;;;;16.88;35.99;98365.75;4986900;28;20133;-75
2021/04/11 10:01:07;;;;;;;5.95;3.60;;;;;;;16.90;35.56;98376.50;4985531;28;19925;-74
2021/04/11 10:03:57;;;;;;;7.97;3.63;;;;;;;16.92;35.81;98377.75;4980564;28;20861;-74
2021/04/11 10:06:47;;;;;;;4.57;2.55;;;;;;;17.00;35.70;98375.28;4976270;28;20050;-73
2021/04/11 10:09:23;;;;;;;5.05;2.97;;;;;;;17.02;35.58;98370.22;4979337;28;20033;-74
2021/04/11 10:12:11;;;;;;;10.18;6.38;;;;;;;17.05;35.67;98348.19;4986274;28;20075;-74
2021/04/11 10:14:45;;;;;;;5.90;1.88;;;;;;;17.06;35.65;98368.38;4982022;28;20052;-73
2021/04/11 10:17:32;;;;;;;4.15;1.88;;;;;;;17.03;35.29;98363.50;4984564;28;20069;-74
2021/04/11 10:20:14;;;;;;;6.90;2.58;;;;;;;16.88;35.13;98362.16;4983947;28;20034;-76
2021/04/11 10:22:42;;;;;;;8.73;3.15;;;;;;;16.82;35.58;98378.19;4987807;28;20794;-76
2021/04/11 10:25:13;;;;;;;6.05;3.15;;;;;;;16.73;35.26;98372.72;4978093;28;20030;-75
2021/04/11 10:27:55;;;;;;;5.03;2.42;;;;;;;16.65;36.08;98379.97;4977234;28;20110;-75
2021/04/11 10:30:22;;;;;;;2.55;1.73;;;;;;;16.57;35.83;98382.81;4979498;28;20026;-75
2021/04/11 10:33:06;;;;;;;5.22;1.83;;;;;;;16.35;36.04;98391.09;4986941;28;20038;-74
2021/04/11 10:36:10;;;;;;;5.30;1.85;;;;;;;16.16;35.91;98396.28;4984504;28;20033;-74
2021/04/11 10:38:39;;;;;;;3.40;2.08;;;;;;;16.02;36.29;98382.69;4988421;28;20045;-73
2021/04/11 10:41:07;;;;;;;5.70;2.10;;;;;;;15.95;36.63;98387.94;4986466;28;20053;-73
2021/04/11 10:43:44;;;;;;;7.22;1.90;;;;;;;15.85;36.87;98384.41;4985310;28;20053;-75
2021/04/11 10:46:15;;;;;;;5.15;3.40;;;;;;;15.75;37.12;98398.59;4974792;28;20456;-74
2021/04/11 10:49:07;;;;;;;5.30;1.90;;;;;;;15.63;37.40;98377.97;4975228;28;20038;-72
2021/04/11 10:51:54;;;;;;;4.05;2.08;;;;;;;15.53;37.35;98372.81;4982757;28;20099;-75
2021/04/11 10:55:07;;;;;;;6.15;2.95;;;;;;;15.50;37.69;98379.00;4987539;28;20030;-73
2021/04/11 10:58:08;;;;;;;51.45;37.45;;;;;;;15.50;38.01;98375.44;4997723;28;20045;-74
2021/04/11 11:00:39;;;;;;;118.97;96.22;;;;;;;15.47;37.96;98382.44;5010274;28;20510;-74
2021/04/11 11:03:34;;;;;;;205.35;141.20;;;;;;;15.35;37.90;98377.59;5010229;28;20097;-74
2021/04/11 11:06:05;;;;;;;145.15;100.60;;;;;;;15.27;37.84;98375.69;4977545;28;20050;-73
2021/04/11 11:08:48;;;;;;;173.30;59.65;;;;;;;15.21;38.39;98368.72;5010391;28;20062;-74
2021/04/11 11:11:46;;;;;;;293.42;111.45;;;;;;;15.16;38.69;98384.31;5010524;28;20052;-73
2021/04/11 11:14:56;;;;;;;155.23;57.72;;;;;;;15.11;38.58;98390.00;5010551;28;20028;-74
2021/04/11 11:17:59;;;;;;;47.38;19.73;;;;;;;15.06;38.83;98387.41;5010646;28;20034;-73
2021/04/11 11:20:30;;;;;;;21.45;9.38;;;;;;;15.01;38.98;98380.13;5011001;28;20022;-73
2021/04/11 11:23:29;;;;;;;71.70;28.23;;;;;;;15.03;39.00;98377.03;5010868;28;20044;-73
2021/04/11 11:26:06;;;;;;;89.80;35.13;;;;;;;15.05;39.25;98379.47;5010607;28;20503;-74
2021/04/11 11:28:56;;;;;;;62.95;25.30;;;;;;;15.07;39.33;98377.19;5010802;28;20269;-74
2021/04/11 11:31:59;;;;;;;49.78;19.77;;;;;;;15.09;39.14;98372.13;5010981;28;20054;-74
2021/04/11 11:34:42;;;;;;;114.68;40.42;;;;;;;15.14;39.55;98367.25;5010869;28;20135;-74
2021/04/11 11:37:24;;;;;;;55.40;22.10;;;;;;;15.19;39.38;98369.03;5001091;28;20034;-75
2021/04/11 11:40:15;;;;;;;131.52;45.65;;;;;;;15.26;39.69;98374.06;5000325;28;20034;-74
2021/04/11 11:42:58;;;;;;;210.45;70.15;;;;;;;15.28;39.05;98367.06;4999031;28;20500;-74
2021/04/11 11:45:39;;;;;;;80.07;27.67;;;;;;;15.34;39.40;98367.69;4996531;28;20030;-74
2021/04/11 11:48:32;;;;;;;51.05;17.77;;;;;;;15.46;39.31;98380.81;5010259;28;20037;-74
2021/04/11 11:51:16;;;;;;;158.25;49.08;;;;;;;15.48;39.26;98373.81;5008880;28;20492;-74
2021/04/11 11:54:09;;;;;;;94.80;30.67;;;;;;;15.58;39.41;98372.63;5008281;28;20113;-74
2021/04/11 11:56:52;;;;;;;18.45;6.53;;;;;;;15.64;38.95;98367.75;5009356;28;20034;-74
2021/04/11 11:59:17;;;;;;;15.20;5.80;;;;;;;15.80;38.48;98369.94;5006129;28;20048;-74
2021/04/11 12:02:12;;;;;;;5.68;2.90;;;;;;;16.01;38.82;98365.31;5008640;28;20486;-74
2021/04/11 12:04:54;;;;;;;5.63;2.80;;;;;;;16.12;38.33;98371.25;5008095;28;20481;-75
2021/04/11 12:07:31;;;;;;;5.20;2.33;;;;;;;16.20;37.61;98377.84;5006374;28;20042;-75
2021/04/11 12:10:08;;;;;;;8.07;4.93;;;;;;;16.27;37.36;98378.13;5008610;28;20070;-73
2021/04/11 12:12:42;;;;;;;5.10;2.67;;;;;;;16.26;36.62;98375.72;5008291;28;20034;-74
2021/04/11 12:15:17;;;;;;;9.60;6.60;;;;;;;16.26;37.02;98364.66;5007566;28;20030;-75
2021/04/11 12:17:59;;;;;;;11.60;6.60;;;;;;;16.32;36.39;98375.19;5010455;28;20051;-75